Time;durP1;ratioP1;P1;durP2;ratioP2;P2;SDS_P1;SDS_P2;PMS_P1;PMS_P2;Temp;Humidity;BMP_temperature;BMP_pressure;BME280_temperature;BME280_humidity;BME280_pressure;Samples;Min_cycle;Max_cycle;Signal;HPM_P1;HPM_P2
2024/01/27 00:00:12;;;;;;;12.40;4.43;;;4.10;99.90;;;;;;5093374;28;20542;-81
2024/01/27 00:02:38;;;;;;;8.90;3.40;;;4.10;99.90;;;;;;5093423;28;20517;-79
2024/01/27 00:05:06;;;;;;;8.20;3.90;;;4.10;99.90;;;;;;5093342;28;20489;-80
2024/01/27 00:07:34;;;;;;;13.00;5.10;;;4.00;99.90;;;;;;5087106;28;20520;-81
2024/01/27 00:10:01;;;;;;;12.93;4.13;;;4.00;99.90;;;;;;5093538;28;20543;-80
2024/01/27 00:12:27;;;;;;;9.20;3.30;;;4.00;99.90;;;;;;5093564;28;20490;-80
2024/01/27 00:14:54;;;;;;;9.17;3.80;;;4.00;99.90;;;;;;5092997;28;20520;-80
2024/01/27 00:17:23;;;;;;;13.00;3.47;;;4.00;99.90;;;;;;5093120;28;20547;-81
2024/01/27 00:19:50;;;;;;;16.07;3.60;;;4.00;99.90;;;;;;5093758;28;20465;-81
2024/01/27 00:22:18;;;;;;;10.10;3.73;;;3.90;99.90;;;;;;5086533;28;20518;-80
2024/01/27 00:24:46;;;;;;;12.10;4.40;;;4.00;99.90;;;;;;5091439;28;20968;-83
2024/01/27 00:27:12;;;;;;;10.23;3.60;;;4.00;99.90;;;;;;5080094;28;20492;-83
2024/01/27 00:29:39;;;;;;;14.83;3.87;;;4.00;99.90;;;;;;5080502;28;20464;-83
2024/01/27 00:32:06;;;;;;;10.27;3.87;;;4.00;99.90;;;;;;5079451;28;20536;-82
2024/01/27 00:34:33;;;;;;;12.47;3.53;;;4.00;99.90;;;;;;5076070;28;20497;-83
2024/01/27 00:37:00;;;;;;;11.90;3.10;;;4.00;99.90;;;;;;5075387;28;20454;-83
2024/01/27 00:39:27;;;;;;;16.33;3.67;;;3.90;99.90;;;;;;5081054;28;20546;-82
2024/01/27 00:41:58;;;;;;;11.10;3.87;;;3.90;99.90;;;;;;5080589;28;20489;-83
2024/01/27 00:44:24;;;;;;;15.00;4.27;;;3.90;99.90;;;;;;5079438;28;20549;-81
2024/01/27 00:46:51;;;;;;;8.40;3.70;;;3.90;99.90;;;;;;5079930;28;20454;-83
2024/01/27 00:49:18;;;;;;;9.57;3.53;;;3.90;99.90;;;;;;5080081;28;20461;-82
2024/01/27 00:51:45;;;;;;;12.90;3.77;;;3.90;99.90;;;;;;5087973;28;20458;-81
2024/01/27 00:54:12;;;;;;;20.03;3.87;;;3.90;99.90;;;;;;5089352;28;20520;-81
2024/01/27 00:56:38;;;;;;;11.33;3.70;;;3.80;99.90;;;;;;5090700;28;20473;-81
2024/01/27 00:59:06;;;;;;;6.50;3.37;;;3.80;99.90;;;;;;5092688;28;20492;-81
2024/01/27 01:01:32;;;;;;;7.50;4.03;;;3.80;99.90;;;;;;5093430;28;20451;-81
2024/01/27 01:03:59;;;;;;;9.27;3.80;;;3.80;99.90;;;;;;5093542;28;20464;-80
2024/01/27 01:06:26;;;;;;;14.27;3.60;;;3.70;99.90;;;;;;5092560;28;20546;-80
2024/01/27 01:08:53;;;;;;;14.10;4.40;;;3.70;99.90;;;;;;5093000;28;20533;-81
2024/01/27 01:11:20;;;;;;;13.27;3.80;;;3.60;99.90;;;;;;5093085;28;20478;-81
2024/01/27 01:13:46;;;;;;;10.83;3.93;;;3.60;99.90;;;;;;5093381;28;20466;-81
2024/01/27 01:16:15;;;;;;;19.10;5.63;;;3.60;99.90;;;;;;5092946;28;20460;-79
2024/01/27 01:18:41;;;;;;;13.63;4.63;;;3.60;99.90;;;;;;5093817;28;20486;-79
2024/01/27 01:21:08;;;;;;;12.67;5.90;;;3.60;99.90;;;;;;5086810;28;20462;-81
2024/01/27 01:23:35;;;;;;;12.33;3.57;;;3.60;99.90;;;;;;5091939;28;20461;-81
2024/01/27 01:26:02;;;;;;;11.27;4.00;;;3.50;99.90;;;;;;5089488;28;20514;-77
2024/01/27 01:28:29;;;;;;;18.30;5.40;;;3.50;99.90;;;;;;5077468;28;20561;-81
2024/01/27 01:30:56;;;;;;;10.93;4.30;;;3.50;99.90;;;;;;5088914;28;20453;-79
2024/01/27 01:33:24;;;;;;;6.13;3.23;;;3.50;99.90;;;;;;5091619;28;20451;-83
2024/01/27 01:35:51;;;;;;;8.63;3.80;;;3.50;99.90;;;;;;5088977;28;20541;-79
2024/01/27 01:38:18;;;;;;;14.33;4.63;;;3.50;99.90;;;;;;5090803;28;20502;-79
2024/01/27 01:40:44;;;;;;;12.17;3.97;;;3.50;99.90;;;;;;5091897;28;20456;-80
2024/01/27 01:43:12;;;;;;;13.50;4.47;;;3.50;99.90;;;;;;5084114;28;20492;-79
2024/01/27 01:45:39;;;;;;;13.37;3.27;;;3.50;99.90;;;;;;5090698;28;20455;-82
2024/01/27 01:48:08;;;;;;;8.37;3.70;;;3.50;99.90;;;;;;5089358;28;20559;-80
2024/01/27 01:50:36;;;;;;;15.70;4.70;;;3.50;99.90;;;;;;5089673;28;20492;-80
2024/01/27 01:53:05;;;;;;;11.70;4.47;;;3.40;99.90;;;;;;5088350;28;20456;-81
2024/01/27 01:55:32;;;;;;;13.97;4.70;;;3.40;99.90;;;;;;5089577;28;20483;-80
2024/01/27 01:57:58;;;;;;;12.80;4.50;;;3.40;99.90;;;;;;5090207;28;20833;-79
2024/01/27 02:00:25;;;;;;;13.23;4.43;;;3.40;99.90;;;;;;5087302;28;20484;-78
2024/01/27 02:02:52;;;;;;;12.90;3.20;;;3.30;99.90;;;;;;5086335;28;20535;-78
2024/01/27 02:05:19;;;;;;;8.20;3.50;;;3.30;99.90;;;;;;5087798;28;20456;-78
2024/01/27 02:07:47;;;;;;;16.57;3.60;;;3.30;99.90;;;;;;5080587;28;20569;-79
2024/01/27 02:10:15;;;;;;;10.43;3.20;;;3.30;99.90;;;;;;5087772;28;20520;-79
2024/01/27 02:12:42;;;;;;;10.23;3.27;;;3.30;99.90;;;;;;5089650;28;20487;-79
2024/01/27 02:15:12;;;;;;;9.00;4.07;;;3.30;99.90;;;;;;5087851;28;20491;-77
2024/01/27 02:17:39;;;;;;;8.47;3.40;;;3.30;99.90;;;;;;5088126;28;20481;-80
2024/01/27 02:20:07;;;;;;;4.47;3.70;;;3.30;99.90;;;;;;5093747;28;20468;-81
2024/01/27 02:22:34;;;;;;;11.83;4.27;;;3.30;99.90;;;;;;5092056;28;20661;-81
2024/01/27 02:25:03;;;;;;;15.23;3.73;;;3.10;99.90;;;;;;5090916;28;20516;-77
2024/01/27 02:27:30;;;;;;;11.10;3.73;;;3.10;99.90;;;;;;5088105;28;20503;-78
2024/01/27 02:29:57;;;;;;;7.83;3.90;;;3.20;99.90;;;;;;5087421;28;20451;-78
2024/01/27 02:32:23;;;;;;;11.23;3.87;;;3.10;99.90;;;;;;5087424;28;20521;-78
2024/01/27 02:34:50;;;;;;;6.00;3.43;;;3.20;99.90;;;;;;5087502;28;20575;-75
2024/01/27 02:37:19;;;;;;;8.50;4.20;;;3.10;99.90;;;;;;5080964;28;20490;-78
2024/01/27 02:39:46;;;;;;;11.03;3.90;;;3.10;99.90;;;;;;5088270;28;20720;-79
2024/01/27 02:42:14;;;;;;;10.33;4.90;;;3.00;99.90;;;;;;5085951;28;20486;-79
2024/01/27 02:44:41;;;;;;;15.17;4.60;;;3.00;99.90;;;;;;5088669;28;20476;-78
2024/01/27 02:47:08;;;;;;;8.33;3.80;;;3.00;99.90;;;;;;5087627;28;20558;-80
2024/01/27 02:49:34;;;;;;;10.10;3.77;;;3.00;99.90;;;;;;5086437;28;20467;-80
2024/01/27 02:52:01;;;;;;;5.77;3.40;;;3.00;99.90;;;;;;5084888;28;20443;-78
2024/01/27 02:54:28;;;;;;;9.10;3.30;;;2.90;99.90;;;;;;5086529;28;21027;-79
2024/01/27 02:56:55;;;;;;;12.47;3.70;;;2.90;99.90;;;;;;5090455;28;20480;-82
2024/01/27 02:59:23;;;;;;;14.87;4.40;;;2.90;99.90;;;;;;5089697;28;20467;-79
2024/01/27 03:01:50;;;;;;;8.13;4.03;;;2.80;99.90;;;;;;5086491;28;20524;-78
2024/01/27 03:04:16;;;;;;;15.57;4.47;;;2.80;99.90;;;;;;5085159;28;20456;-79
2024/01/27 03:06:44;;;;;;;9.23;4.03;;;2.80;99.90;;;;;;5089296;28;20601;-80
2024/01/27 03:09:11;;;;;;;19.37;4.90;;;2.70;99.90;;;;;;5091446;28;20462;-81
2024/01/27 03:11:38;;;;;;;14.20;4.90;;;2.60;99.90;;;;;;5091614;28;20456;-81
2024/01/27 03:14:05;;;;;;;10.60;3.93;;;2.70;99.90;;;;;;5091034;28;20453;-81
2024/01/27 03:16:32;;;;;;;19.93;4.10;;;2.70;99.90;;;;;;5086601;28;20521;-81
2024/01/27 03:18:59;;;;;;;10.77;4.47;;;2.60;99.90;;;;;;5090741;28;20462;-81
2024/01/27 03:21:26;;;;;;;10.13;4.47;;;2.60;99.90;;;;;;5088530;28;20475;-82
2024/01/27 03:23:53;;;;;;;15.73;4.10;;;2.50;99.90;;;;;;5092516;28;20486;-81
2024/01/27 03:26:20;;;;;;;9.20;3.70;;;2.50;99.90;;;;;;5091657;28;20426;-82
2024/01/27 03:28:47;;;;;;;8.20;3.57;;;2.50;99.90;;;;;;5087582;28;20531;-81
2024/01/27 03:31:14;;;;;;;12.40;3.93;;;2.50;99.90;;;;;;5092805;28;20455;-81
2024/01/27 03:33:42;;;;;;;11.00;4.50;;;2.50;99.90;;;;;;5093011;28;20523;-79
2024/01/27 03:36:11;;;;;;;14.00;4.13;;;2.50;99.90;;;;;;5089159;28;20495;-82
2024/01/27 03:38:37;;;;;;;11.23;4.00;;;2.50;99.90;;;;;;5093169;28;20467;-82
2024/01/27 03:41:05;;;;;;;9.97;4.47;;;2.50;99.90;;;;;;5081882;28;20530;-79
2024/01/27 03:43:32;;;;;;;9.20;4.13;;;2.50;99.90;;;;;;5071822;28;20450;-80
2024/01/27 03:45:59;;;;;;;13.27;6.97;;;2.40;99.90;;;;;;5072430;28;20450;-79
2024/01/27 03:48:26;;;;;;;16.73;5.10;;;2.40;99.90;;;;;;5072443;28;20482;-79
2024/01/27 03:50:54;;;;;;;8.80;3.97;;;2.30;99.90;;;;;;5077440;28;20482;-80
2024/01/27 03:53:21;;;;;;;11.30;4.27;;;2.30;99.90;;;;;;5073951;28;20426;-81
2024/01/27 03:55:48;;;;;;;9.37;4.10;;;2.30;99.90;;;;;;5081468;28;20579;-80
2024/01/27 03:58:15;;;;;;;9.33;3.90;;;2.30;99.90;;;;;;5080654;28;20498;-81
2024/01/27 04:00:41;;;;;;;11.67;5.23;;;2.30;99.90;;;;;;5083148;28;20487;-79
2024/01/27 04:03:09;;;;;;;7.33;4.20;;;2.30;99.90;;;;;;5075684;28;20533;-79
2024/01/27 04:05:36;;;;;;;10.83;4.33;;;2.30;99.90;;;;;;5075516;28;20661;-79
2024/01/27 04:08:06;;;;;;;16.43;4.10;;;2.30;99.90;;;;;;5073853;28;20481;-79
2024/01/27 04:10:32;;;;;;;9.67;5.00;;;2.30;99.90;;;;;;5074581;28;20526;-79
2024/01/27 04:12:59;;;;;;;11.93;5.17;;;2.30;99.90;;;;;;5075674;28;20440;-78
2024/01/27 04:15:26;;;;;;;16.50;5.23;;;2.30;99.90;;;;;;5076229;28;20574;-79
2024/01/27 04:17:54;;;;;;;14.00;4.70;;;2.30;99.90;;;;;;5075803;28;20979;-79
2024/01/27 04:20:21;;;;;;;8.20;4.13;;;2.20;99.90;;;;;;5075641;28;20461;-80
2024/01/27 04:22:47;;;;;;;8.37;4.80;;;2.20;99.90;;;;;;5070032;28;20465;-80
2024/01/27 04:25:16;;;;;;;9.87;4.60;;;2.20;99.90;;;;;;5073324;28;20458;-79
2024/01/27 04:27:43;;;;;;;17.10;5.33;;;2.20;99.90;;;;;;5075119;28;20481;-81
2024/01/27 04:30:11;;;;;;;12.43;5.47;;;2.20;99.90;;;;;;5068971;28;20549;-82
2024/01/27 04:32:38;;;;;;;8.40;4.63;;;2.30;99.90;;;;;;5075399;28;20463;-81
2024/01/27 04:35:09;;;;;;;10.83;6.20;;;2.30;99.90;;;;;;5074997;28;20501;-80
2024/01/27 04:37:36;;;;;;;17.37;5.03;;;2.40;99.90;;;;;;5074651;28;20557;-81
2024/01/27 04:40:03;;;;;;;7.83;4.10;;;2.40;99.90;;;;;;5073309;28;20458;-81
2024/01/27 04:42:31;;;;;;;12.77;6.10;;;2.40;99.90;;;;;;5071267;28;20461;-82
2024/01/27 04:44:57;;;;;;;12.83;4.97;;;2.50;99.90;;;;;;5064909;28;20911;-81
2024/01/27 04:47:24;;;;;;;11.53;5.07;;;2.50;99.90;;;;;;5078940;28;20506;-80
2024/01/27 04:49:51;;;;;;;8.73;4.70;;;2.50;99.90;;;;;;5069717;28;20459;-81
2024/01/27 04:52:18;;;;;;;9.23;4.50;;;2.50;99.90;;;;;;5070728;28;20458;-83
2024/01/27 04:54:45;;;;;;;14.57;5.80;;;2.50;99.90;;;;;;5078226;28;20426;-81
2024/01/27 04:57:11;;;;;;;12.80;5.20;;;2.50;99.90;;;;;;5078993;28;20481;-81
2024/01/27 04:59:40;;;;;;;13.90;5.50;;;2.60;99.90;;;;;;5077250;28;20471;-82
2024/01/27 05:02:07;;;;;;;21.90;6.33;;;2.60;99.90;;;;;;5075482;28;20455;-80
2024/01/27 05:04:34;;;;;;;10.93;5.20;;;2.60;99.90;;;;;;5075170;28;20463;-79
2024/01/27 05:07:01;;;;;;;13.97;5.47;;;2.50;99.90;;;;;;5073644;28;20457;-79
2024/01/27 05:09:27;;;;;;;14.90;6.60;;;2.50;99.90;;;;;;5076952;28;20434;-79
2024/01/27 05:11:54;;;;;;;12.23;5.13;;;2.60;99.90;;;;;;5075730;28;20451;-80
2024/01/27 05:14:21;;;;;;;14.70;4.67;;;2.60;99.90;;;;;;5074887;28;20458;-79
2024/01/27 05:16:49;;;;;;;11.63;5.40;;;2.60;99.90;;;;;;5074418;28;20494;-79
2024/01/27 05:19:17;;;;;;;11.50;5.40;;;2.60;99.90;;;;;;5073496;28;20487;-80
2024/01/27 05:21:44;;;;;;;11.27;4.70;;;2.70;99.90;;;;;;5067733;28;20458;-80
2024/01/27 05:24:11;;;;;;;11.13;4.83;;;2.60;99.90;;;;;;5072555;28;20455;-79
2024/01/27 05:26:38;;;;;;;10.37;5.40;;;2.60;99.90;;;;;;5074451;28;20451;-81
2024/01/27 05:29:05;;;;;;;13.90;7.10;;;2.50;99.90;;;;;;5074374;28;20984;-79
2024/01/27 05:31:31;;;;;;;14.00;6.30;;;2.60;99.90;;;;;;5076983;28;20538;-81
2024/01/27 05:34:00;;;;;;;15.20;5.77;;;2.50;99.90;;;;;;5078339;28;20462;-81
2024/01/27 05:36:27;;;;;;;17.50;6.23;;;2.50;99.90;;;;;;5076199;28;20485;-81
2024/01/27 05:38:54;;;;;;;17.17;6.70;;;2.60;99.90;;;;;;5077804;28;20992;-82
2024/01/27 05:41:20;;;;;;;12.30;5.70;;;2.60;99.90;;;;;;5077240;28;20455;-82
2024/01/27 05:43:47;;;;;;;9.13;4.93;;;2.60;99.90;;;;;;5078691;28;20490;-82
2024/01/27 05:46:14;;;;;;;13.67;5.83;;;2.60;99.90;;;;;;5077195;28;20455;-81
2024/01/27 05:48:41;;;;;;;13.93;6.30;;;2.60;99.90;;;;;;5076521;28;20995;-81
2024/01/27 05:51:09;;;;;;;13.20;5.40;;;2.60;99.90;;;;;;5075204;28;20557;-80
2024/01/27 05:53:37;;;;;;;13.07;5.97;;;2.60;99.90;;;;;;5077744;28;20459;-80
2024/01/27 05:56:04;;;;;;;23.13;6.67;;;2.50;99.90;;;;;;5075218;28;21010;-80
2024/01/27 05:58:31;;;;;;;11.10;5.87;;;2.50;99.90;;;;;;5075893;28;20472;-79
2024/01/27 06:00:58;;;;;;;12.60;5.47;;;2.50;99.90;;;;;;5067330;28;20494;-81
2024/01/27 06:03:24;;;;;;;11.60;5.90;;;2.50;99.90;;;;;;5074358;28;20455;-80
2024/01/27 06:05:51;;;;;;;15.27;5.40;;;2.50;99.90;;;;;;5074296;28;20842;-83
2024/01/27 06:08:19;;;;;;;14.20;6.60;;;2.50;99.90;;;;;;5070607;28;20482;-82
2024/01/27 06:10:46;;;;;;;14.77;5.57;;;2.50;99.90;;;;;;5073596;28;20466;-79
2024/01/27 06:13:13;;;;;;;12.90;5.83;;;2.50;99.90;;;;;;5072930;28;20457;-78
2024/01/27 06:15:40;;;;;;;11.43;5.00;;;2.40;99.90;;;;;;5069355;28;20487;-82
2024/01/27 06:18:07;;;;;;;9.63;5.50;;;2.40;99.90;;;;;;5073646;28;20994;-82
2024/01/27 06:20:34;;;;;;;26.40;5.83;;;2.40;99.90;;;;;;5072995;28;20462;-82
2024/01/27 06:23:01;;;;;;;8.90;4.80;;;2.40;99.90;;;;;;5073936;28;20536;-78
2024/01/27 06:25:29;;;;;;;11.23;5.20;;;2.40;99.90;;;;;;5073770;28;20447;-79
2024/01/27 06:27:56;;;;;;;19.33;6.20;;;2.40;99.90;;;;;;5074847;28;20467;-82
2024/01/27 06:30:22;;;;;;;9.93;4.80;;;2.40;99.90;;;;;;5073948;28;20771;-81
2024/01/27 06:32:49;;;;;;;12.83;5.20;;;2.50;99.90;;;;;;5073969;28;20451;-78
2024/01/27 06:35:17;;;;;;;16.43;6.77;;;2.50;99.90;;;;;;5082256;28;20463;-82
2024/01/27 06:37:43;;;;;;;13.93;5.77;;;2.40;99.90;;;;;;5079584;28;20473;-83
2024/01/27 06:40:11;;;;;;;11.30;5.07;;;2.40;99.90;;;;;;5074031;28;20523;-82
2024/01/27 06:42:39;;;;;;;16.93;6.40;;;2.50;99.90;;;;;;5068737;28;20453;-81
2024/01/27 06:45:07;;;;;;;9.97;5.60;;;2.50;99.90;;;;;;5073310;28;20514;-81
2024/01/27 06:47:34;;;;;;;12.90;6.13;;;2.50;99.90;;;;;;5069270;28;20905;-82
2024/01/27 06:50:01;;;;;;;8.00;4.70;;;2.50;99.90;;;;;;5076292;28;20499;-83
2024/01/27 06:52:28;;;;;;;10.90;5.10;;;2.50;99.90;;;;;;5075000;28;20508;-84
2024/01/27 06:54:55;;;;;;;11.37;4.40;;;2.40;99.90;;;;;;5072666;28;20535;-84
2024/01/27 06:57:23;;;;;;;13.40;4.43;;;2.40;99.90;;;;;;5081455;28;21688;-83
2024/01/27 06:59:53;;;;;;;19.33;5.37;;;2.40;99.90;;;;;;5075737;28;20795;-80
2024/01/27 07:02:23;;;;;;;12.53;4.93;;;2.30;99.90;;;;;;5084062;28;20461;-81
2024/01/27 07:04:53;;;;;;;12.63;5.23;;;2.30;99.90;;;;;;5070993;28;20464;-80
2024/01/27 07:07:23;;;;;;;11.03;4.50;;;2.30;99.90;;;;;;5078181;28;20537;-81
2024/01/27 07:09:50;;;;;;;15.47;4.67;;;2.30;99.90;;;;;;5068898;28;20490;-79
2024/01/27 07:12:17;;;;;;;10.90;4.90;;;2.20;99.90;;;;;;5066806;28;20902;-81
2024/01/27 07:14:44;;;;;;;8.93;4.30;;;2.30;99.90;;;;;;5062503;28;20445;-81
2024/01/27 07:17:12;;;;;;;19.07;5.67;;;2.30;99.90;;;;;;5065566;28;20485;-81
2024/01/27 07:19:39;;;;;;;9.67;5.00;;;2.30;99.90;;;;;;5064180;28;20470;-78
2024/01/27 07:22:06;;;;;;;16.90;4.83;;;2.20;99.90;;;;;;5066060;28;20538;-81
2024/01/27 07:24:33;;;;;;;13.57;5.13;;;2.20;99.90;;;;;;5063960;28;20509;-81
2024/01/27 07:27:01;;;;;;;8.70;4.60;;;2.30;99.90;;;;;;5060674;28;20462;-79
2024/01/27 07:29:28;;;;;;;12.03;4.80;;;2.30;99.90;;;;;;5067527;28;20458;-79
2024/01/27 07:31:55;;;;;;;13.33;5.53;;;2.30;99.90;;;;;;5068976;28;20508;-80
2024/01/27 07:34:23;;;;;;;14.80;5.00;;;2.30;99.90;;;;;;5066405;28;20470;-81
2024/01/27 07:36:50;;;;;;;10.60;4.73;;;2.30;99.90;;;;;;5068345;28;20475;-82
2024/01/27 07:39:17;;;;;;;11.93;4.97;;;2.30;99.90;;;;;;5074933;28;20445;-81
2024/01/27 07:41:43;;;;;;;10.60;4.73;;;2.30;99.90;;;;;;5068689;28;20505;-81
2024/01/27 07:44:11;;;;;;;13.40;4.83;;;2.40;99.90;;;;;;5061438;28;20479;-81
2024/01/27 07:46:38;;;;;;;8.23;4.07;;;2.40;99.90;;;;;;5076396;28;20465;-82
2024/01/27 07:49:06;;;;;;;13.13;5.17;;;2.40;99.90;;;;;;5083578;28;20504;-81
2024/01/27 07:51:35;;;;;;;10.00;4.40;;;2.40;99.90;;;;;;5066826;28;20443;-79
2024/01/27 07:54:02;;;;;;;10.17;5.23;;;2.40;99.90;;;;;;5070672;28;20445;-78
2024/01/27 07:56:29;;;;;;;12.60;4.90;;;2.40;99.90;;;;;;5062327;28;20492;-78
2024/01/27 07:58:58;;;;;;;14.93;5.80;;;2.50;99.90;;;;;;5066425;28;20453;-80
2024/01/27 08:01:25;;;;;;;14.07;7.57;;;2.50;99.90;;;;;;5065237;28;20534;-78
2024/01/27 08:03:52;;;;;;;9.20;5.47;;;2.60;99.90;;;;;;5075851;28;20429;-80
2024/01/27 08:06:20;;;;;;;11.00;5.10;;;2.60;99.90;;;;;;5069125;28;20447;-79
2024/01/27 08:08:49;;;;;;;18.73;6.83;;;2.70;99.90;;;;;;5070154;28;20441;-78
2024/01/27 08:11:17;;;;;;;10.90;5.90;;;2.70;99.90;;;;;;5068484;28;20536;-80
2024/01/27 08:13:44;;;;;;;8.87;4.80;;;2.80;99.90;;;;;;5068444;28;20467;-80
2024/01/27 08:16:12;;;;;;;9.40;5.40;;;2.80;99.90;;;;;;5067654;28;20485;-80
2024/01/27 08:18:39;;;;;;;15.80;5.50;;;2.80;99.90;;;;;;5067416;28;20486;-80
2024/01/27 08:21:06;;;;;;;16.83;5.83;;;2.90;99.90;;;;;;5074319;28;20460;-80
2024/01/27 08:23:33;;;;;;;17.43;5.57;;;2.90;99.90;;;;;;5064451;28;20453;-81
2024/01/27 08:26:01;;;;;;;8.37;4.80;;;2.90;99.90;;;;;;5066056;28;20950;-77
2024/01/27 08:28:28;;;;;;;22.97;5.87;;;3.00;99.90;;;;;;5066685;28;20469;-80
2024/01/27 08:30:55;;;;;;;81.80;33.87;;;3.10;99.90;;;;;;5075429;28;20454;-80
2024/01/27 08:33:22;;;;;;;19.10;7.90;;;3.20;99.90;;;;;;5070236;28;20466;-80
2024/01/27 08:35:48;;;;;;;11.47;5.33;;;3.30;99.90;;;;;;5073954;28;20456;-80
2024/01/27 08:38:15;;;;;;;13.20;5.00;;;3.30;99.90;;;;;;5075230;28;20487;-79
2024/01/27 08:40:42;;;;;;;10.73;4.40;;;3.30;99.90;;;;;;5075519;28;20457;-80
2024/01/27 08:43:11;;;;;;;12.60;4.97;;;3.40;99.90;;;;;;5075547;28;20515;-80
2024/01/27 08:45:38;;;;;;;16.07;4.93;;;3.40;99.90;;;;;;5073121;28;20543;-80
2024/01/27 08:48:07;;;;;;;19.17;5.40;;;3.50;99.90;;;;;;5078458;28;20475;-80
2024/01/27 08:50:34;;;;;;;9.53;5.37;;;3.50;99.90;;;;;;5074962;28;20459;-80
2024/01/27 08:53:01;;;;;;;11.23;4.93;;;3.60;99.90;;;;;;5074799;28;20449;-80
2024/01/27 08:55:28;;;;;;;17.17;5.90;;;3.70;99.90;;;;;;5066249;28;20455;-80
2024/01/27 08:57:56;;;;;;;13.40;4.50;;;3.70;99.90;;;;;;5067529;28;20586;-79
2024/01/27 09:00:24;;;;;;;9.90;4.57;;;3.80;99.90;;;;;;5075262;28;20455;-82
2024/01/27 09:02:51;;;;;;;10.20;3.87;;;3.90;99.90;;;;;;5070252;28;20467;-80
2024/01/27 09:05:18;;;;;;;17.87;5.80;;;3.90;99.90;;;;;;5072478;28;20553;-80
2024/01/27 09:07:46;;;;;;;12.70;4.63;;;3.90;99.90;;;;;;5069037;28;20559;-81
2024/01/27 09:10:15;;;;;;;13.63;4.40;;;4.00;99.90;;;;;;5074071;28;20946;-81
2024/01/27 09:12:42;;;;;;;12.77;4.53;;;4.10;99.90;;;;;;5074541;28;20488;-80
2024/01/27 09:15:09;;;;;;;10.30;5.30;;;4.20;99.90;;;;;;5075978;28;20553;-80
2024/01/27 09:17:38;;;;;;;15.57;5.00;;;4.20;99.90;;;;;;5076224;28;21015;-79
2024/01/27 09:20:05;;;;;;;10.40;4.80;;;4.30;99.90;;;;;;5071668;28;20458;-79
2024/01/27 09:22:32;;;;;;;11.70;4.20;;;4.40;99.90;;;;;;5070890;28;20450;-79
2024/01/27 09:24:59;;;;;;;71.97;31.20;;;4.40;99.90;;;;;;5071991;28;20547;-78
2024/01/27 09:27:26;;;;;;;15.87;5.33;;;4.50;99.90;;;;;;5075956;28;20475;-79
2024/01/27 09:30:01;;;;;;;17.07;4.37;;;4.60;99.90;;;;;;5074232;28;20500;-79
2024/01/27 09:32:28;;;;;;;14.13;4.90;;;4.70;99.90;;;;;;5074654;28;20521;-80
2024/01/27 09:34:56;;;;;;;11.80;3.60;;;4.70;99.90;;;;;;5088541;28;20450;-81
2024/01/27 09:37:23;;;;;;;11.93;4.53;;;4.80;99.90;;;;;;5087910;28;20497;-82
2024/01/27 09:39:49;;;;;;;10.50;3.80;;;4.90;99.90;;;;;;5085400;28;20520;-80
2024/01/27 09:42:17;;;;;;;12.53;4.40;;;5.00;99.90;;;;;;5081461;28;20463;-83
2024/01/27 09:44:45;;;;;;;25.67;5.90;;;5.00;99.90;;;;;;5091079;28;20513;-80
2024/01/27 09:47:12;;;;;;;13.73;5.03;;;5.10;99.90;;;;;;5092248;28;20486;-80
2024/01/27 09:49:41;;;;;;;9.13;3.87;;;5.20;99.90;;;;;;5094152;28;20461;-81
2024/01/27 09:52:10;;;;;;;11.40;4.90;;;5.30;99.90;;;;;;5092994;28;20459;-81
2024/01/27 09:54:37;;;;;;;11.63;4.27;;;5.40;99.90;;;;;;5089300;28;20433;-81
2024/01/27 09:57:04;;;;;;;13.77;4.40;;;5.40;99.90;;;;;;5088121;28;20478;-82
2024/01/27 09:59:34;;;;;;;11.50;4.60;;;5.50;99.90;;;;;;5079260;28;20545;-80
2024/01/27 10:02:03;;;;;;;9.80;4.10;;;5.50;99.90;;;;;;5073082;28;20485;-82
2024/01/27 10:04:31;;;;;;;16.10;4.90;;;5.60;99.90;;;;;;5068953;28;20455;-82
2024/01/27 10:06:59;;;;;;;8.90;3.40;;;5.60;99.90;;;;;;5071719;28;20955;-83
2024/01/27 10:09:27;;;;;;;9.83;4.00;;;5.70;99.90;;;;;;5080561;28;20454;-81
2024/01/27 10:11:56;;;;;;;13.53;3.70;;;5.80;99.90;;;;;;5067182;28;20958;-82
2024/01/27 10:14:23;;;;;;;8.80;4.20;;;5.80;99.90;;;;;;5069832;28;20455;-81
2024/01/27 10:16:50;;;;;;;14.23;4.77;;;5.80;99.90;;;;;;5079491;28;20508;-82
2024/01/27 10:19:19;;;;;;;8.40;3.50;;;5.80;99.90;;;;;;5072385;28;20453;-81
2024/01/27 10:21:46;;;;;;;13.50;3.53;;;5.90;99.90;;;;;;5080842;28;20534;-82
2024/01/27 10:24:13;;;;;;;18.63;3.53;;;6.00;99.90;;;;;;5079770;28;20501;-81
2024/01/27 10:26:41;;;;;;;18.53;4.27;;;6.10;99.90;;;;;;5081642;28;20494;-81
2024/01/27 10:29:10;;;;;;;7.37;3.17;;;6.20;99.90;;;;;;5080501;28;20478;-82
2024/01/27 10:31:37;;;;;;;13.33;4.30;;;6.50;99.90;;;;;;5081677;28;20463;-82
2024/01/27 10:34:08;;;;;;;9.77;3.80;;;6.60;99.90;;;;;;5079598;28;20456;-82
2024/01/27 10:36:42;;;;;;;9.93;3.10;;;6.80;99.90;;;;;;5081014;28;20458;-81
2024/01/27 10:39:17;;;;;;;15.17;4.37;;;7.10;99.90;;;;;;5077698;28;20532;-83
2024/01/27 10:41:48;;;;;;;16.40;5.00;;;7.00;99.90;;;;;;5071348;28;21014;-82
2024/01/27 10:44:16;;;;;;;7.23;2.80;;;6.90;99.90;;;;;;5078799;28;20442;-82
2024/01/27 10:46:48;;;;;;;11.70;2.87;;;7.00;99.90;;;;;;5079429;28;21001;-83
2024/01/27 10:49:16;;;;;;;7.13;2.90;;;7.00;99.90;;;;;;5067248;28;20531;-82
2024/01/27 10:51:46;;;;;;;11.57;3.40;;;6.90;99.90;;;;;;5076218;28;20955;-83
2024/01/27 10:54:17;;;;;;;9.03;3.83;;;7.00;99.90;;;;;;5075247;28;20873;-83
2024/01/27 10:56:46;;;;;;;20.57;4.03;;;7.10;99.90;;;;;;5072392;28;20459;-83
2024/01/27 10:59:15;;;;;;;13.67;4.27;;;7.30;99.90;;;;;;5073581;28;20853;-80
2024/01/27 11:01:43;;;;;;;19.13;4.27;;;7.60;99.90;;;;;;5076380;28;20455;-82
2024/01/27 11:04:13;;;;;;;11.33;3.60;;;8.10;99.90;;;;;;5070964;28;20451;-83
2024/01/27 11:06:41;;;;;;;11.23;2.93;;;8.50;99.90;;;;;;5066239;28;20456;-83
2024/01/27 11:09:11;;;;;;;8.93;3.47;;;8.60;99.90;;;;;;5071172;28;20471;-82
2024/01/27 11:11:38;;;;;;;10.80;4.07;;;8.50;99.90;;;;;;5075825;28;20524;-83
2024/01/27 11:14:07;;;;;;;10.53;2.87;;;8.70;99.90;;;;;;5072368;28;20522;-83
2024/01/27 11:16:35;;;;;;;9.27;3.07;;;8.90;99.90;;;;;;5067939;28;20537;-82
2024/01/27 11:19:03;;;;;;;11.03;2.70;;;8.90;99.90;;;;;;5075248;28;20590;-81
2024/01/27 11:21:30;;;;;;;8.10;3.33;;;9.10;99.90;;;;;;5077568;28;20458;-82
2024/01/27 11:23:56;;;;;;;13.77;3.37;;;9.00;99.90;;;;;;5078902;28;20469;-82
2024/01/27 11:26:25;;;;;;;8.70;2.97;;;9.40;99.90;;;;;;5082266;28;20541;-83
2024/01/27 11:28:53;;;;;;;10.30;3.40;;;9.70;99.90;;;;;;5076624;28;20473;-82
2024/01/27 11:31:21;;;;;;;11.13;4.07;;;10.00;99.90;;;;;;5078476;28;20486;-83
2024/01/27 11:33:51;;;;;;;11.83;2.90;;;10.30;99.90;;;;;;5078135;28;20466;-83
2024/01/27 11:36:23;;;;;;;12.60;3.10;;;11.00;99.90;;;;;;5077820;28;20515;-84
2024/01/27 11:38:51;;;;;;;14.33;4.50;;;13.10;99.90;;;;;;5077454;28;20498;-83
2024/01/27 11:41:25;;;;;;;10.27;4.00;;;15.60;99.90;;;;;;5080710;28;20561;-84
2024/01/27 11:43:53;;;;;;;14.10;3.53;;;17.60;91.80;;;;;;5079456;28;20472;-83
2024/01/27 11:46:21;;;;;;;6.80;3.03;;;19.20;87.80;;;;;;5079124;28;20455;-82
2024/01/27 11:48:49;;;;;;;8.67;3.33;;;19.20;78.90;;;;;;5081305;28;20499;-84
2024/01/27 11:51:16;;;;;;;9.47;3.60;;;19.90;76.70;;;;;;5081576;28;20468;-84
2024/01/27 11:53:44;;;;;;;7.33;3.60;;;20.20;74.20;;;;;;5082698;28;20542;-83
2024/01/27 11:56:11;;;;;;;10.43;3.60;;;21.50;71.20;;;;;;5087813;28;21009;-79
2024/01/27 11:58:38;;;;;;;61.50;29.60;;;21.60;68.40;;;;;;5080789;28;20562;-82
2024/01/27 12:01:05;;;;;;;12.30;5.10;;;22.80;67.60;;;;;;5079164;28;20522;-83
2024/01/27 12:03:33;;;;;;;10.83;3.87;;;23.10;64.00;;;;;;5082587;28;20614;-84
2024/01/27 12:06:00;;;;;;;6.73;3.50;;;22.70;61.40;;;;;;5079096;28;20454;-80
2024/01/27 12:08:27;;;;;;;9.37;3.80;;;23.50;60.50;;;;;;5074631;28;20473;-83
2024/01/27 12:10:54;;;;;;;9.53;4.50;;;23.80;59.10;;;;;;5079314;28;20454;-81
2024/01/27 12:13:21;;;;;;;11.37;4.07;;;24.10;58.20;;;;;;5080548;28;20482;-83
2024/01/27 12:15:48;;;;;;;12.00;4.13;;;25.00;57.80;;;;;;5084258;28;20489;-82
2024/01/27 12:18:15;;;;;;;9.50;3.80;;;25.00;56.20;;;;;;5077735;28;20986;-83
2024/01/27 12:20:44;;;;;;;11.20;3.57;;;25.30;56.00;;;;;;5078171;28;20457;-82
2024/01/27 12:23:11;;;;;;;7.40;3.50;;;25.00;54.00;;;;;;5078939;28;20938;-82
2024/01/27 12:25:37;;;;;;;15.90;3.60;;;23.90;54.60;;;;;;5078967;28;20475;-83
2024/01/27 12:28:05;;;;;;;9.47;3.40;;;23.70;55.70;;;;;;5077634;28;20473;-80
2024/01/27 12:30:33;;;;;;;10.23;3.50;;;24.40;55.10;;;;;;5076849;28;20455;-82
2024/01/27 12:33:00;;;;;;;12.37;3.80;;;24.60;54.30;;;;;;5079281;28;20489;-79
2024/01/27 12:35:29;;;;;;;9.50;3.33;;;23.80;53.50;;;;;;5076652;28;20531;-78
2024/01/27 12:38:00;;;;;;;7.67;4.10;;;22.80;53.90;;;;;;5075471;28;20526;-82
2024/01/27 12:40:27;;;;;;;9.10;3.03;;;21.10;54.50;;;;;;5080671;28;20542;-82
2024/01/27 12:42:54;;;;;;;8.60;3.37;;;20.10;56.10;;;;;;5073368;28;20902;-79
2024/01/27 12:45:21;;;;;;;9.93;3.80;;;20.30;57.00;;;;;;5080738;28;20455;-82
2024/01/27 12:47:48;;;;;;;13.30;5.10;;;19.50;56.30;;;;;;5085894;28;20534;-82